ADDS METAR Data INFO
IDs: Format: Raw Decoded Include TAF

Data at: 1337 UTC 23 Jun 2018

KAUG 231253Z AUTO 19007KT 160V220 10SM CLR 17/10 A3004 RMK AO2 SLP173 T01670100
KAUG 231153Z AUTO 20003KT 10SM CLR 16/11 A3003 RMK AO2 SLP170 T01560111 10156 20117 50001
KAUG 231053Z AUTO 19003KT 10SM CLR 13/11 A3004 RMK AO2 SLP171 T01330111
KAUG 230953Z AUTO 20005KT 10SM CLR 12/11 A3003 RMK AO2 SLP170 T01220111
KAUG 230853Z AUTO 19004KT 10SM CLR 12/11 A3003 RMK AO2 SLP168 T01220111 56008
KAUG 230753Z AUTO 19004KT 10SM CLR 12/11 A3004 RMK AO2 SLP170 T01170111
KAUG 230653Z AUTO 19004KT 10SM CLR 12/11 A3004 RMK AO2 SLP173 T01170111
KAUG 230553Z AUTO 19004KT 10SM CLR 12/12 A3005 RMK AO2 SLP176 T01220117 10172 20122 58005
KAUG 230453Z AUTO 21004KT 10SM CLR 12/11 A3006 RMK AO2 SLP178 T01220106 402330094
KAUG 230353Z AUTO 20004KT 10SM CLR 13/09 A3007 RMK AO2 SLP181 T01280094
KAUG 230253Z AUTO 20003KT 10SM CLR 13/08 A3007 RMK AO2 SLP183 T01330083 50006
KAUG 230153Z AUTO 20004KT 10SM CLR 15/07 A3007 RMK AO2 SLP182 T01500072
KAUG 230053Z AUTO 20007KT 10SM CLR 16/06 A3006 RMK AO2 SLP179 T01610056
KAUG 222353Z AUTO 19006KT 10SM CLR 18/06 A3005 RMK AO2 SLP177 T01780056 10233 20178 53005
KAUG 222253Z AUTO 16009G15KT 10SM CLR 19/07 A3004 RMK AO2 SLP174 T01940067
KAUG 222153Z AUTO 21006KT 10SM CLR 21/07 A3004 RMK AO2 SLP171 T02060067
KAUG 222053Z AUTO 18008KT 10SM CLR 22/07 A3004 RMK AO2 SLP172 T02220067 56005
KAUG 221953Z AUTO VRB05KT 10SM CLR 22/06 A3004 RMK AO2 SLP173 T02220056
KAUG 221853Z AUTO 18008KT 10SM CLR 23/07 A3005 RMK AO2 SLP174 T02330067
KAUG 221753Z AUTO 21009G15KT 180V250 10SM CLR 23/06 A3005 RMK AO2 SLP176 T02280056 10228 20156 56009
KAUG 221653Z AUTO 26007KT 10SM CLR 22/06 A3006 RMK AO2 SLP178 T02220061
KAUG 221553Z AUTO VRB06KT 10SM CLR 22/06 A3007 RMK AO2 SLP182 T02220061
KAUG 221453Z AUTO VRB04KT 10SM CLR 20/05 A3008 RMK AO2 SLP185 T02000050 58000
KAUG 221353Z AUTO 00000KT 10SM CLR 19/05 A3009 RMK AO2 SLP190 T01940050
KAUG 221253Z AUTO 03003KT 10SM CLR 17/04 A3009 RMK AO2 SLP188 T01720044
KAUG 221153Z AUTO 02005KT 10SM CLR 16/06 A3008 RMK AO2 SLP185 T01560056 10156 20094 53023
KAUG 221053Z AUTO 34005KT 10SM CLR 13/06 A3006 RMK AO2 SLP177 T01330061
KAUG 220953Z AUTO 34006KT 10SM CLR 11/06 A3004 RMK AO2 SLP170 T01060061
KAUG 220853Z AUTO 35004KT 10SM CLR 10/05 A3001 RMK AO2 SLP162 T01000050 53012
KAUG 220753Z AUTO 35004KT 10SM CLR 11/05 A2999 RMK AO2 SLP156 T01060050
KAUG 220653Z AUTO 34006KT 10SM CLR 11/06 A2999 RMK AO2 SLP153 T01060056
KAUG 220553Z AUTO 34004KT 10SM CLR 12/05 A2997 RMK AO2 SLP150 T01170050 10211 20117 51012
KAUG 220453Z AUTO 34004KT 10SM CLR 13/05 A2997 RMK AO2 SLP150 T01280050 402560128
KAUG 220353Z AUTO 02006KT 10SM CLR 14/04 A2996 RMK AO2 SLP146 T01440044
KAUG 220253Z AUTO 34006KT 10SM CLR 14/04 A2994 RMK AO2 SLP137 T01440044 51026
KAUG 220153Z AUTO 02003KT 10SM CLR 17/04 A2992 RMK AO2 SLP130 T01720039